Time;durP1;ratioP1;P1;durP2;ratioP2;P2;SDS_P1;SDS_P2;PMS_P1;PMS_P2;Temp;Humidity;BMP_temperature;BMP_pressure;BME280_temperature;BME280_humidity;BME280_pressure;Samples;Min_cycle;Max_cycle;Signal;HPM_P1;HPM_P2
2024/01/19 00:00:02;;;;;;;9.35;3.53;;;-1.20;99.90;;;;;;5017411;28;20058;-63
2024/01/19 00:02:32;;;;;;;7.05;3.65;;;-1.20;99.90;;;;;;5009723;28;20070;-63
2024/01/19 00:04:59;;;;;;;16.83;5.72;;;-1.30;99.90;;;;;;5000776;28;20093;-64
2024/01/19 00:07:26;;;;;;;7.95;3.42;;;-1.30;99.90;;;;;;5003567;28;20054;-63
2024/01/19 00:09:53;;;;;;;9.00;4.00;;;-1.30;99.90;;;;;;5008577;28;20324;-63
2024/01/19 00:12:20;;;;;;;11.50;3.72;;;-1.30;99.90;;;;;;5012053;28;20112;-63
2024/01/19 00:14:47;;;;;;;7.97;3.30;;;-1.30;99.90;;;;;;5012939;28;20049;-63
2024/01/19 00:17:13;;;;;;;9.50;3.47;;;-1.30;99.90;;;;;;5006519;28;20048;-62
2024/01/19 00:19:40;;;;;;;5.80;3.20;;;-1.30;99.90;;;;;;5000480;28;20050;-64
2024/01/19 00:22:07;;;;;;;10.18;4.60;;;-1.30;99.90;;;;;;5013994;28;20046;-63
2024/01/19 00:24:34;;;;;;;6.50;3.55;;;-1.30;99.90;;;;;;5012834;28;20049;-63
2024/01/19 00:27:00;;;;;;;12.52;4.03;;;-1.30;99.90;;;;;;4997359;28;20131;-64
2024/01/19 00:29:28;;;;;;;7.65;3.55;;;-1.40;99.90;;;;;;5002026;28;20049;-63
2024/01/19 00:31:56;;;;;;;10.23;3.70;;;-1.40;99.90;;;;;;5005787;28;20496;-63
2024/01/19 00:34:23;;;;;;;6.22;2.88;;;-1.40;99.90;;;;;;5002720;28;20042;-63
2024/01/19 00:36:50;;;;;;;11.18;3.75;;;-1.40;99.90;;;;;;5007384;28;20038;-63
2024/01/19 00:39:16;;;;;;;7.20;3.30;;;-1.40;99.90;;;;;;4998694;28;20046;-63
2024/01/19 00:41:44;;;;;;;6.15;3.60;;;-1.40;99.90;;;;;;5008143;28;20151;-63
2024/01/19 00:44:10;;;;;;;8.90;3.58;;;-1.40;99.90;;;;;;4998899;28;20062;-63
2024/01/19 00:46:37;;;;;;;7.15;3.40;;;-1.40;99.90;;;;;;4997302;28;20050;-63
2024/01/19 00:49:05;;;;;;;14.50;3.67;;;-1.40;99.90;;;;;;5000742;28;20084;-63
2024/01/19 00:51:31;;;;;;;4.90;2.67;;;-1.40;99.90;;;;;;5002205;28;20493;-64
2024/01/19 00:53:58;;;;;;;7.10;3.20;;;-1.30;99.90;;;;;;5005968;28;20049;-63
2024/01/19 00:56:25;;;;;;;6.57;3.00;;;-1.30;99.90;;;;;;5005383;28;20512;-63
2024/01/19 00:58:52;;;;;;;7.20;2.60;;;-1.30;99.90;;;;;;5005124;28;20557;-62
2024/01/19 01:01:19;;;;;;;7.10;3.20;;;-1.30;99.90;;;;;;5004808;28;20074;-64
2024/01/19 01:03:46;;;;;;;5.15;2.40;;;-1.30;99.90;;;;;;5005151;28;20049;-64
2024/01/19 01:06:13;;;;;;;9.40;3.15;;;-1.30;99.90;;;;;;5007506;28;20072;-63
2024/01/19 01:08:40;;;;;;;10.40;3.30;;;-1.30;99.90;;;;;;5005493;28;20057;-63
2024/01/19 01:11:07;;;;;;;8.98;2.90;;;-1.30;99.90;;;;;;5003084;28;21251;-63
2024/01/19 01:13:34;;;;;;;6.25;3.20;;;-1.30;99.90;;;;;;5008160;28;20049;-63
2024/01/19 01:16:01;;;;;;;6.22;3.00;;;-1.30;99.90;;;;;;5000683;28;20156;-63
2024/01/19 01:18:28;;;;;;;6.90;2.50;;;-1.10;99.90;;;;;;5012468;28;20267;-63
2024/01/19 01:20:57;;;;;;;5.70;4.20;;;-1.10;99.90;;;;;;5005418;28;20096;-62
2024/01/19 01:23:24;;;;;;;7.15;2.75;;;-1.30;99.90;;;;;;5007765;28;20038;-63
2024/01/19 01:25:51;;;;;;;6.40;2.75;;;-1.40;99.90;;;;;;5000400;28;20066;-63
2024/01/19 01:28:18;;;;;;;4.32;2.88;;;-1.40;99.90;;;;;;5010057;28;20820;-62
2024/01/19 01:30:45;;;;;;;6.78;3.22;;;-1.40;99.90;;;;;;5012302;28;20490;-62
2024/01/19 01:33:11;;;;;;;11.85;3.60;;;-1.40;99.90;;;;;;5006218;28;20049;-62
2024/01/19 01:35:39;;;;;;;5.80;2.97;;;-1.40;99.90;;;;;;5009900;28;20038;-62
2024/01/19 01:38:05;;;;;;;7.85;2.75;;;-1.40;99.90;;;;;;5010001;28;20049;-62
2024/01/19 01:40:32;;;;;;;6.03;2.90;;;-1.50;99.90;;;;;;5005959;28;20053;-62
2024/01/19 01:43:00;;;;;;;5.70;3.05;;;-1.50;99.90;;;;;;5003485;28;20085;-62
2024/01/19 01:45:28;;;;;;;12.02;3.03;;;-1.40;99.90;;;;;;5017743;28;20096;-62
2024/01/19 01:47:55;;;;;;;8.27;2.75;;;-1.20;99.90;;;;;;5003238;28;20104;-62
2024/01/19 01:50:22;;;;;;;6.10;2.40;;;-1.50;99.90;;;;;;5013078;28;20155;-63
2024/01/19 01:52:52;;;;;;;6.55;3.30;;;-1.40;99.90;;;;;;5002892;28;20144;-63
2024/01/19 01:55:19;;;;;;;6.85;2.40;;;-1.40;99.90;;;;;;5018551;28;20541;-63
2024/01/19 01:57:46;;;;;;;7.40;2.90;;;-1.30;99.90;;;;;;5000809;28;20092;-63
2024/01/19 02:00:14;;;;;;;5.95;2.70;;;-1.40;99.90;;;;;;4993860;28;20073;-63
2024/01/19 02:02:41;;;;;;;3.85;2.17;;;-1.40;99.90;;;;;;5021795;28;20520;-63
2024/01/19 02:05:08;;;;;;;7.55;2.40;;;-1.40;99.90;;;;;;5002114;28;20141;-63
2024/01/19 02:07:35;;;;;;;7.10;2.70;;;-1.50;99.90;;;;;;5004437;28;20085;-64
2024/01/19 02:10:02;;;;;;;4.97;2.50;;;-1.50;99.90;;;;;;5000548;28;20048;-64
2024/01/19 02:12:29;;;;;;;4.32;2.17;;;-1.50;99.90;;;;;;5000515;28;20054;-66
2024/01/19 02:14:57;;;;;;;8.25;3.67;;;-1.60;99.90;;;;;;5005526;28;20077;-64
2024/01/19 02:17:26;;;;;;;5.25;2.63;;;-1.50;99.90;;;;;;5001602;28;20049;-64
2024/01/19 02:19:53;;;;;;;8.68;2.55;;;-1.50;99.90;;;;;;5001487;28;20155;-62
2024/01/19 02:22:20;;;;;;;7.13;2.10;;;-1.60;99.90;;;;;;4999769;28;20045;-62
2024/01/19 02:24:47;;;;;;;7.13;2.72;;;-1.50;99.90;;;;;;5004475;28;20050;-62
2024/01/19 02:27:14;;;;;;;6.55;3.10;;;-1.50;99.90;;;;;;5000665;28;20046;-64
2024/01/19 02:29:49;;;;;;;4.00;2.65;;;-1.50;99.90;;;;;;5009786;28;20560;-62
2024/01/19 02:32:16;;;;;;;9.10;2.75;;;-1.40;99.90;;;;;;4997747;28;20942;-64
2024/01/19 02:34:46;;;;;;;5.97;2.60;;;-1.50;99.90;;;;;;5005329;28;20374;-64
2024/01/19 02:37:15;;;;;;;7.55;2.72;;;-1.40;99.90;;;;;;5001181;28;20042;-63
2024/01/19 02:39:42;;;;;;;6.93;3.03;;;-1.40;99.90;;;;;;5003455;28;20115;-64
2024/01/19 02:42:09;;;;;;;4.22;2.58;;;-1.40;99.90;;;;;;5001598;28;20046;-63
2024/01/19 02:44:36;;;;;;;5.47;2.17;;;-1.30;99.90;;;;;;5002349;28;20045;-63
2024/01/19 02:47:03;;;;;;;4.65;2.45;;;-1.30;99.90;;;;;;5004704;28;20057;-62
2024/01/19 02:49:30;;;;;;;4.75;3.17;;;-1.40;99.90;;;;;;5001909;28;20058;-62
2024/01/19 02:51:56;;;;;;;11.77;3.00;;;-1.40;99.90;;;;;;4996833;28;20152;-61
2024/01/19 02:54:23;;;;;;;5.95;2.00;;;-1.50;99.90;;;;;;5000495;28;20074;-62
2024/01/19 02:56:50;;;;;;;5.57;2.50;;;-1.50;99.90;;;;;;5006112;28;20054;-62
2024/01/19 02:59:17;;;;;;;4.35;2.40;;;-1.60;99.90;;;;;;5000029;28;20072;-62
2024/01/19 03:01:44;;;;;;;6.55;2.72;;;-1.50;99.90;;;;;;5002350;28;20053;-61
2024/01/19 03:04:11;;;;;;;3.08;2.30;;;-1.50;99.90;;;;;;4999036;28;20049;-61
2024/01/19 03:06:37;;;;;;;4.32;2.42;;;-1.50;99.90;;;;;;5004865;28;20054;-62
2024/01/19 03:09:04;;;;;;;7.72;2.33;;;-1.60;99.90;;;;;;4999379;28;20042;-62
2024/01/19 03:11:31;;;;;;;5.25;2.00;;;-1.50;99.90;;;;;;5000608;28;20505;-62
2024/01/19 03:13:58;;;;;;;4.63;2.53;;;-1.50;99.90;;;;;;5000448;28;20081;-63
2024/01/19 03:16:25;;;;;;;5.85;2.40;;;-1.60;99.90;;;;;;5009073;28;20108;-62
2024/01/19 03:18:55;;;;;;;4.85;2.60;;;-1.60;99.90;;;;;;5007278;28;20100;-62
2024/01/19 03:21:21;;;;;;;3.58;2.08;;;-1.60;99.90;;;;;;5007682;28;20046;-63
2024/01/19 03:23:48;;;;;;;4.10;2.38;;;-1.60;99.90;;;;;;4998263;28;20046;-64
2024/01/19 03:26:15;;;;;;;11.27;3.10;;;-1.50;99.90;;;;;;5002419;28;20053;-62
2024/01/19 03:28:42;;;;;;;8.48;2.47;;;-1.50;99.90;;;;;;5003578;28;20046;-62
2024/01/19 03:31:09;;;;;;;7.05;3.60;;;-1.20;99.90;;;;;;5000351;28;20524;-62
2024/01/19 03:33:35;;;;;;;6.35;2.10;;;-1.50;99.90;;;;;;5009341;28;20287;-62
2024/01/19 03:36:03;;;;;;;5.63;2.83;;;-1.50;99.90;;;;;;4996758;28;20057;-63
2024/01/19 03:38:30;;;;;;;5.60;2.45;;;-1.50;99.90;;;;;;5013282;28;20050;-63
2024/01/19 03:40:58;;;;;;;5.65;2.55;;;-1.50;99.90;;;;;;4999694;28;20325;-63
2024/01/19 03:43:24;;;;;;;4.03;2.08;;;-1.50;99.90;;;;;;5003467;28;20056;-62
2024/01/19 03:45:51;;;;;;;5.07;2.55;;;-1.40;99.90;;;;;;4998438;28;20104;-63
2024/01/19 03:48:18;;;;;;;5.00;2.50;;;-1.50;99.90;;;;;;5001462;28;20300;-62
2024/01/19 03:50:45;;;;;;;7.22;2.70;;;-1.60;99.90;;;;;;4999647;28;20074;-62
2024/01/19 03:53:12;;;;;;;8.68;2.70;;;-1.60;99.90;;;;;;5001097;28;20054;-62
2024/01/19 03:55:39;;;;;;;4.32;2.42;;;-1.60;99.90;;;;;;5001513;28;20069;-63
2024/01/19 03:58:06;;;;;;;6.35;3.08;;;-1.60;99.90;;;;;;4999866;28;20077;-61
2024/01/19 04:00:32;;;;;;;6.65;2.88;;;-1.30;99.90;;;;;;5002691;28;20046;-62
2024/01/19 04:02:59;;;;;;;7.30;2.33;;;-1.60;99.90;;;;;;5008603;28;20128;-62
2024/01/19 04:05:26;;;;;;;5.63;2.25;;;-1.60;99.90;;;;;;5003434;28;20459;-62
2024/01/19 04:07:53;;;;;;;5.82;2.15;;;-1.60;99.90;;;;;;5011239;28;20081;-63
2024/01/19 04:10:20;;;;;;;6.15;2.58;;;-1.60;99.90;;;;;;5002299;28;20112;-62
2024/01/19 04:12:49;;;;;;;3.67;2.00;;;-1.60;99.90;;;;;;5000796;28;20172;-62
2024/01/19 04:15:16;;;;;;;7.07;2.40;;;-1.60;99.90;;;;;;5022643;28;20046;-63
2024/01/19 04:17:42;;;;;;;7.43;2.22;;;-1.60;99.90;;;;;;5004985;28;20116;-62
2024/01/19 04:20:09;;;;;;;3.90;2.05;;;-1.60;99.90;;;;;;5016833;28;20506;-62
2024/01/19 04:22:36;;;;;;;11.77;2.25;;;-1.70;99.90;;;;;;5003640;28;20050;-63
2024/01/19 04:25:03;;;;;;;5.88;1.98;;;-1.50;99.90;;;;;;5003013;28;20077;-62
2024/01/19 04:27:30;;;;;;;3.72;2.30;;;-1.70;99.90;;;;;;5001618;28;20100;-63
2024/01/19 04:29:57;;;;;;;12.10;1.90;;;-1.80;99.90;;;;;;5004118;28;20400;-63
2024/01/19 04:32:24;;;;;;;5.05;2.42;;;-1.70;99.90;;;;;;5005773;28;20050;-63
2024/01/19 04:34:51;;;;;;;5.70;2.90;;;-1.70;99.90;;;;;;5010558;28;20045;-63
2024/01/19 04:37:18;;;;;;;7.20;2.22;;;-0.90;99.90;;;;;;4997860;28;20139;-64
2024/01/19 04:39:45;;;;;;;4.50;2.15;;;-1.70;99.90;;;;;;5004137;28;20046;-63
2024/01/19 04:42:12;;;;;;;5.60;1.83;;;-1.90;99.90;;;;;;5001352;28;20135;-63
2024/01/19 04:44:39;;;;;;;4.05;2.08;;;-1.90;99.90;;;;;;5005354;28;20046;-61
2024/01/19 04:47:06;;;;;;;3.75;2.28;;;-1.80;99.90;;;;;;5003309;28;20082;-62
2024/01/19 04:49:33;;;;;;;9.35;2.63;;;-1.90;99.90;;;;;;5001597;28;20104;-62
2024/01/19 04:52:01;;;;;;;5.25;2.28;;;-1.90;99.90;;;;;;4779479;22;20183;-67
2024/01/19 04:54:28;;;;;;;9.88;3.17;;;-2.00;99.90;;;;;;4984704;28;20124;-69
2024/01/19 04:56:54;;;;;;;5.15;2.60;;;-1.00;99.90;;;;;;5004801;28;20061;-68
2024/01/19 04:59:21;;;;;;;6.55;2.53;;;-1.90;99.90;;;;;;5000381;28;20050;-69
2024/01/19 05:01:48;;;;;;;3.63;1.80;;;-2.00;99.90;;;;;;5002456;28;20080;-69
2024/01/19 05:04:15;;;;;;;6.60;2.75;;;-2.00;99.90;;;;;;5011978;28;20049;-69
2024/01/19 05:06:42;;;;;;;6.10;2.17;;;-2.00;99.90;;;;;;5004134;28;20359;-68
2024/01/19 05:09:09;;;;;;;4.75;2.45;;;-2.10;99.90;;;;;;5006730;28;20512;-69
2024/01/19 05:11:36;;;;;;;5.63;2.40;;;-2.10;99.90;;;;;;5005798;28;20070;-69
2024/01/19 05:14:05;;;;;;;8.75;3.05;;;-2.20;99.90;;;;;;5003311;28;20046;-68
2024/01/19 05:16:32;;;;;;;5.65;2.70;;;-2.00;99.90;;;;;;4996809;28;20053;-69
2024/01/19 05:18:59;;;;;;;8.43;2.10;;;-2.00;99.90;;;;;;5001532;28;20112;-69
2024/01/19 05:21:25;;;;;;;6.07;2.38;;;-2.20;99.90;;;;;;5005434;28;20092;-69
2024/01/19 05:23:52;;;;;;;7.47;2.42;;;-2.30;99.90;;;;;;4998262;28;20096;-69
2024/01/19 05:26:19;;;;;;;5.07;2.03;;;-2.30;99.90;;;;;;5002477;28;20052;-69
2024/01/19 05:28:46;;;;;;;4.72;2.50;;;-2.40;99.90;;;;;;4996705;28;20103;-68
2024/01/19 05:31:13;;;;;;;4.90;2.47;;;-2.40;99.90;;;;;;5002022;28;20155;-69
2024/01/19 05:33:40;;;;;;;9.57;2.80;;;-2.40;99.90;;;;;;5002524;28;20512;-69
2024/01/19 05:36:07;;;;;;;4.70;2.25;;;-2.40;99.90;;;;;;5018993;28;20146;-69
2024/01/19 05:38:34;;;;;;;6.95;2.92;;;-2.40;99.90;;;;;;5004153;28;20050;-69
2024/01/19 05:41:02;;;;;;;8.05;2.40;;;-2.40;99.90;;;;;;4998147;28;20428;-69
2024/01/19 05:43:29;;;;;;;5.22;2.47;;;-2.30;99.90;;;;;;5001891;28;20104;-68
2024/01/19 05:45:56;;;;;;;5.88;2.60;;;-2.30;99.90;;;;;;4999302;28;20132;-69
2024/01/19 05:48:25;;;;;;;7.05;2.22;;;-2.50;99.90;;;;;;5000703;28;20046;-70
2024/01/19 05:50:52;;;;;;;6.20;2.58;;;-2.40;99.90;;;;;;5002678;28;20046;-69
2024/01/19 05:53:19;;;;;;;7.97;1.92;;;-2.50;99.90;;;;;;5009403;28;20445;-68
2024/01/19 05:55:46;;;;;;;3.85;2.00;;;-2.60;99.90;;;;;;4998441;28;20077;-69
2024/01/19 05:58:12;;;;;;;3.97;1.50;;;-2.50;99.90;;;;;;5018713;28;20136;-68
2024/01/19 06:00:39;;;;;;;7.95;2.03;;;-2.60;99.90;;;;;;4997753;28;20054;-68
2024/01/19 06:03:06;;;;;;;7.68;2.70;;;-2.60;99.90;;;;;;5004531;28;20042;-69
2024/01/19 06:05:35;;;;;;;7.32;2.60;;;-2.50;99.90;;;;;;4997106;28;20046;-68
2024/01/19 06:08:03;;;;;;;9.63;2.55;;;-2.50;99.90;;;;;;4994989;28;20054;-69
2024/01/19 06:10:30;;;;;;;4.68;1.90;;;-2.60;99.90;;;;;;5001647;28;20472;-68
2024/01/19 06:12:56;;;;;;;5.70;2.10;;;-2.40;99.90;;;;;;4997420;28;20247;-68
2024/01/19 06:15:23;;;;;;;4.45;2.00;;;-2.50;99.90;;;;;;5017740;28;20124;-69
2024/01/19 06:17:50;;;;;;;5.72;2.22;;;-2.60;99.90;;;;;;4995360;28;20514;-68
2024/01/19 06:20:17;;;;;;;9.75;2.92;;;-2.60;99.90;;;;;;4993780;28;20041;-69
2024/01/19 06:22:44;;;;;;;6.53;2.22;;;-2.60;99.90;;;;;;5015080;28;20405;-69
2024/01/19 06:25:11;;;;;;;5.90;2.95;;;-2.30;99.90;;;;;;5001698;28;20331;-68
2024/01/19 06:27:38;;;;;;;11.85;2.53;;;-2.60;99.90;;;;;;4999926;28;20176;-69
2024/01/19 06:30:08;;;;;;;8.75;3.38;;;-2.60;99.90;;;;;;5003241;28;20042;-68
2024/01/19 06:32:36;;;;;;;8.07;3.88;;;-2.70;99.90;;;;;;5002430;28;20472;-69
2024/01/19 06:35:03;;;;;;;10.15;2.55;;;-2.70;99.90;;;;;;5000236;28;20508;-69
2024/01/19 06:37:30;;;;;;;6.88;2.65;;;-2.60;99.90;;;;;;4998554;28;20046;-69
2024/01/19 06:39:57;;;;;;;10.40;2.95;;;-2.70;99.90;;;;;;5002909;28;20099;-69
2024/01/19 06:42:24;;;;;;;5.03;2.08;;;-2.60;99.90;;;;;;4995629;28;20057;-69
2024/01/19 06:44:51;;;;;;;4.35;2.15;;;-2.60;99.90;;;;;;5014246;28;20324;-69
2024/01/19 06:47:21;;;;;;;6.68;2.35;;;-2.70;99.90;;;;;;5017588;28;20056;-68
2024/01/19 06:49:48;;;;;;;6.63;2.28;;;-2.70;99.90;;;;;;5003780;28;20042;-68
2024/01/19 06:52:15;;;;;;;5.35;2.35;;;-2.70;99.90;;;;;;5000629;28;20427;-68
2024/01/19 06:54:42;;;;;;;9.38;3.38;;;-2.70;99.90;;;;;;5003476;28;20042;-67
2024/01/19 06:57:08;;;;;;;6.45;2.47;;;-2.70;99.90;;;;;;5001873;28;20377;-68
2024/01/19 06:59:35;;;;;;;5.85;2.50;;;-2.70;99.90;;;;;;4998433;28;20408;-68
2024/01/19 07:02:02;;;;;;;7.75;3.22;;;-2.70;99.90;;;;;;5000590;28;20042;-67
2024/01/19 07:04:29;;;;;;;6.03;3.22;;;-2.70;99.90;;;;;;5019251;28;20492;-68
2024/01/19 07:06:56;;;;;;;6.03;2.95;;;-2.70;99.90;;;;;;5000088;28;20385;-70
2024/01/19 07:09:23;;;;;;;4.57;2.72;;;-2.70;99.90;;;;;;5004331;28;20058;-69
2024/01/19 07:11:50;;;;;;;6.82;2.40;;;-2.70;99.90;;;;;;5002781;28;20047;-68
2024/01/19 07:14:17;;;;;;;5.18;3.08;;;-2.70;99.90;;;;;;5004699;28;20081;-68
2024/01/19 07:16:44;;;;;;;6.88;2.58;;;-2.70;99.90;;;;;;5001786;28;20293;-68
2024/01/19 07:19:11;;;;;;;7.97;2.97;;;-2.70;99.90;;;;;;4996996;28;20157;-68
2024/01/19 07:21:41;;;;;;;7.80;2.38;;;-2.80;99.90;;;;;;5002340;28;20054;-68
2024/01/19 07:24:09;;;;;;;7.57;3.50;;;-2.70;99.90;;;;;;5000482;28;20077;-70
2024/01/19 07:26:36;;;;;;;4.00;2.40;;;-2.80;99.90;;;;;;4999885;28;20049;-68
2024/01/19 07:29:06;;;;;;;12.43;3.08;;;-2.80;99.90;;;;;;4987389;28;20050;-68
2024/01/19 07:31:33;;;;;;;11.63;2.90;;;-2.80;99.90;;;;;;5004406;28;20133;-67
2024/01/19 07:34:00;;;;;;;4.53;2.25;;;-2.80;99.90;;;;;;4997130;28;20304;-68
2024/01/19 07:36:27;;;;;;;7.15;3.05;;;-2.80;99.90;;;;;;5003024;28;20073;-69
2024/01/19 07:38:54;;;;;;;15.90;3.45;;;-2.60;99.90;;;;;;5001903;28;20155;-70
2024/01/19 07:41:21;;;;;;;11.18;3.95;;;-2.80;99.90;;;;;;5006155;28;20045;-65
2024/01/19 07:43:48;;;;;;;9.35;2.47;;;-2.80;99.90;;;;;;4996325;28;20055;-65
2024/01/19 07:46:15;;;;;;;6.25;3.20;;;-2.80;99.90;;;;;;5002910;28;20093;-65
2024/01/19 07:48:42;;;;;;;6.97;3.55;;;-2.80;99.90;;;;;;4996857;28;20060;-66
2024/01/19 07:51:09;;;;;;;6.07;2.38;;;-2.80;99.90;;;;;;5010945;28;20406;-66
2024/01/19 07:53:36;;;;;;;7.03;3.88;;;-2.80;99.90;;;;;;4998459;28;20054;-66
2024/01/19 07:56:03;;;;;;;7.07;2.95;;;-2.70;99.90;;;;;;5001761;28;20074;-66
2024/01/19 07:58:30;;;;;;;11.00;2.65;;;-2.70;99.90;;;;;;5004367;28;20064;-65
2024/01/19 08:00:56;;;;;;;6.90;3.83;;;-2.70;99.90;;;;;;5003704;28;20054;-71
2024/01/19 08:03:25;;;;;;;10.60;2.95;;;-2.70;99.90;;;;;;5019253;28;20052;-65
2024/01/19 08:05:52;;;;;;;8.52;3.53;;;-2.70;99.90;;;;;;5013516;28;20137;-66
2024/01/19 08:08:19;;;;;;;6.88;3.67;;;-2.70;99.90;;;;;;5005000;28;20050;-66
2024/01/19 08:10:46;;;;;;;5.90;2.63;;;-2.80;99.90;;;;;;5000302;28;20200;-65
2024/01/19 08:13:14;;;;;;;11.90;3.92;;;-2.80;99.90;;;;;;5004066;28;20050;-65
2024/01/19 08:15:40;;;;;;;5.93;3.33;;;-2.70;99.90;;;;;;4998289;28;20045;-67
2024/01/19 08:18:07;;;;;;;10.27;3.38;;;-2.70;99.90;;;;;;5002543;28;20050;-64
2024/01/19 08:20:34;;;;;;;7.50;3.55;;;-2.70;99.90;;;;;;4996389;28;20050;-67
2024/01/19 08:23:02;;;;;;;5.97;3.17;;;-2.60;99.90;;;;;;4988292;28;20094;-66
2024/01/19 08:25:29;;;;;;;7.85;3.47;;;-2.60;99.90;;;;;;4998788;28;20469;-66
2024/01/19 08:27:56;;;;;;;5.18;2.85;;;-2.60;99.90;;;;;;5002517;28;20827;-66
2024/01/19 08:30:23;;;;;;;7.78;3.03;;;-2.60;99.90;;;;;;4988959;28;20141;-65
2024/01/19 08:32:49;;;;;;;8.23;3.90;;;-2.70;99.90;;;;;;5003994;28;20412;-67
2024/01/19 08:35:16;;;;;;;8.75;3.78;;;-2.70;99.90;;;;;;4998133;28;20042;-66
2024/01/19 08:37:43;;;;;;;12.65;5.90;;;-2.60;99.90;;;;;;5001049;28;20046;-66
2024/01/19 08:40:11;;;;;;;15.18;3.92;;;-2.60;99.90;;;;;;4998832;28;20162;-67
2024/01/19 08:42:38;;;;;;;10.95;4.03;;;-2.50;99.90;;;;;;5001993;28;20552;-66
2024/01/19 08:45:06;;;;;;;10.48;3.90;;;-2.40;99.90;;;;;;4999227;28;20058;-66
2024/01/19 08:47:33;;;;;;;12.18;4.15;;;-2.40;99.90;;;;;;5009873;28;20129;-66
2024/01/19 08:50:00;;;;;;;9.32;3.58;;;-2.40;99.90;;;;;;5003215;28;20129;-66
2024/01/19 08:52:29;;;;;;;7.43;3.67;;;-2.40;99.90;;;;;;5000467;28;20058;-67
2024/01/19 08:54:58;;;;;;;8.88;4.18;;;-2.30;99.90;;;;;;4986992;28;20081;-66
2024/01/19 08:57:24;;;;;;;13.15;4.60;;;-2.20;99.90;;;;;;5000422;28;20455;-66
2024/01/19 08:59:52;;;;;;;10.82;4.28;;;-2.10;99.90;;;;;;4999536;28;20060;-66
2024/01/19 09:02:19;;;;;;;13.20;4.07;;;-2.00;99.90;;;;;;5006249;28;20511;-66
2024/01/19 09:04:46;;;;;;;8.75;3.47;;;-2.00;99.90;;;;;;4978098;28;20053;-66
2024/01/19 09:07:13;;;;;;;10.27;3.95;;;-1.90;99.90;;;;;;5003791;28;20054;-66
2024/01/19 09:09:41;;;;;;;8.05;4.03;;;-1.80;99.90;;;;;;5000311;28;20116;-65
2024/01/19 09:12:08;;;;;;;13.70;3.60;;;-1.60;99.90;;;;;;4998458;28;20056;-65
2024/01/19 09:14:35;;;;;;;7.20;3.58;;;-1.60;99.90;;;;;;5020410;28;20145;-65
2024/01/19 09:17:02;;;;;;;12.25;4.10;;;-1.50;99.90;;;;;;5000529;28;20041;-66
2024/01/19 09:19:29;;;;;;;8.90;3.90;;;-1.40;99.90;;;;;;4999899;28;20056;-65
2024/01/19 09:21:56;;;;;;;10.65;3.88;;;-1.30;99.90;;;;;;4998651;28;20053;-65
2024/01/19 09:24:23;;;;;;;9.32;4.43;;;-1.20;99.90;;;;;;5002684;28;20485;-64
2024/01/19 09:26:49;;;;;;;14.88;4.28;;;-1.20;99.90;;;;;;4998876;28;20076;-65
2024/01/19 09:29:16;;;;;;;10.63;2.95;;;-1.10;99.90;;;;;;5004600;28;20046;-65
2024/01/19 09:31:47;;;;;;;8.35;3.03;;;-1.00;99.90;;;;;;4999276;28;20104;-65
2024/01/19 09:34:14;;;;;;;12.18;3.88;;;-0.90;99.90;;;;;;5002623;28;20050;-66
2024/01/19 09:36:41;;;;;;;8.50;4.60;;;-0.80;99.90;;;;;;5001228;28;20433;-65
2024/01/19 09:39:08;;;;;;;10.18;3.67;;;-0.60;99.90;;;;;;4999132;28;20092;-66
2024/01/19 09:41:38;;;;;;;6.72;2.53;;;-0.70;99.90;;;;;;4992827;28;20496;-65
2024/01/19 09:44:09;;;;;;;11.38;3.05;;;-0.50;99.90;;;;;;5001816;28;20076;-65
2024/01/19 09:47:04;;;;;;;9.38;3.25;;;-0.30;99.90;;;;;;5004184;28;20057;-65
2024/01/19 09:49:38;;;;;;;4.40;2.30;;;-0.30;99.90;;;;;;4994288;28;20417;-65
2024/01/19 09:52:13;;;;;;;10.63;2.65;;;-0.20;99.90;;;;;;5000396;28;20048;-65
2024/01/19 09:54:40;;;;;;;4.70;2.67;;;-0.10;99.90;;;;;;5004585;28;20081;-68
2024/01/19 09:57:07;;;;;;;5.80;2.80;;;0.00;99.90;;;;;;5019679;28;20046;-69
2024/01/19 09:59:34;;;;;;;8.20;3.55;;;0.70;99.90;;;;;;5006201;28;20466;-66
2024/01/19 10:02:01;;;;;;;6.22;3.22;;;0.20;99.90;;;;;;5000505;28;20085;-66
2024/01/19 10:04:29;;;;;;;6.65;3.03;;;0.30;99.90;;;;;;4999142;28;20112;-66
2024/01/19 10:06:56;;;;;;;8.35;2.85;;;0.40;99.90;;;;;;5003452;28;20379;-68
2024/01/19 10:09:23;;;;;;;4.18;2.35;;;0.50;99.90;;;;;;5001363;28;20045;-66
2024/01/19 10:11:51;;;;;;;7.18;2.45;;;0.60;99.90;;;;;;5003206;28;20041;-67
2024/01/19 10:14:19;;;;;;;7.28;2.63;;;0.70;99.90;;;;;;5000214;28;20077;-66
2024/01/19 10:16:48;;;;;;;6.32;3.03;;;0.90;99.90;;;;;;5003857;28;20496;-66
2024/01/19 10:19:16;;;;;;;6.40;2.80;;;1.20;99.90;;;;;;4996191;28;20181;-66
2024/01/19 10:21:43;;;;;;;8.75;3.00;;;1.10;99.90;;;;;;4998239;28;20678;-65
2024/01/19 10:24:14;;;;;;;8.73;2.90;;;1.20;99.90;;;;;;4994561;28;20046;-65
2024/01/19 10:26:42;;;;;;;12.80;2.90;;;1.30;99.90;;;;;;5004292;28;20061;-64
2024/01/19 10:29:10;;;;;;;5.72;2.20;;;1.30;99.90;;;;;;4996775;28;20062;-65
2024/01/19 10:31:38;;;;;;;7.95;2.60;;;1.40;99.90;;;;;;5016401;28;20421;-64
2024/01/19 10:34:04;;;;;;;6.57;3.45;;;1.60;99.90;;;;;;4998935;28;20215;-65
2024/01/19 10:36:38;;;;;;;13.80;2.58;;;1.60;99.90;;;;;;4996055;28;20050;-65
2024/01/19 10:39:15;;;;;;;10.40;3.38;;;1.60;99.90;;;;;;4999342;28;20050;-64
2024/01/19 10:41:41;;;;;;;10.77;3.30;;;1.60;99.90;;;;;;5004321;28;20064;-64
2024/01/19 10:44:13;;;;;;;8.35;2.78;;;1.70;99.90;;;;;;4998409;28;20127;-64
2024/01/19 10:46:40;;;;;;;7.15;2.70;;;1.80;99.90;;;;;;4998616;28;20445;-64
2024/01/19 10:49:08;;;;;;;4.25;2.35;;;1.80;99.90;;;;;;4984948;28;20108;-64
2024/01/19 10:51:40;;;;;;;8.18;2.38;;;2.00;99.90;;;;;;4999703;28;20048;-64
2024/01/19 10:54:10;;;;;;;10.88;2.47;;;2.00;99.90;;;;;;5015405;28;20065;-64
2024/01/19 10:56:38;;;;;;;8.90;2.45;;;2.10;99.90;;;;;;5002369;28;20069;-64
2024/01/19 10:59:12;;;;;;;6.10;1.98;;;2.20;99.90;;;;;;4998077;28;20389;-64
2024/01/19 11:01:39;;;;;;;4.25;2.20;;;2.20;99.90;;;;;;5018841;28;20058;-64
2024/01/19 11:04:07;;;;;;;5.38;2.85;;;2.20;99.90;;;;;;5002781;28;20547;-64
2024/01/19 11:06:36;;;;;;;6.25;2.85;;;2.30;99.90;;;;;;5014141;28;20042;-64
2024/01/19 11:09:06;;;;;;;8.10;2.65;;;2.40;99.90;;;;;;5006347;28;20522;-65
2024/01/19 11:11:43;;;;;;;7.60;2.65;;;2.40;99.90;;;;;;5006700;28;20050;-66
2024/01/19 11:14:10;;;;;;;5.10;2.45;;;2.50;99.90;;;;;;4992385;28;20115;-65
2024/01/19 11:16:41;;;;;;;7.20;2.20;;;2.60;99.90;;;;;;5016539;28;20038;-65
2024/01/19 11:19:08;;;;;;;3.72;2.00;;;2.60;99.90;;;;;;5001603;28;20046;-65
2024/01/19 11:21:35;;;;;;;5.43;2.08;;;2.70;99.90;;;;;;4997131;28;20218;-65
2024/01/19 11:24:03;;;;;;;5.70;2.47;;;2.70;99.90;;;;;;5022432;28;20053;-64
2024/01/19 11:26:34;;;;;;;7.57;2.15;;;2.70;99.90;;;;;;5005681;28;20046;-64
2024/01/19 11:29:09;;;;;;;7.80;2.85;;;2.90;99.90;;;;;;4991022;28;20089;-64
2024/01/19 11:31:39;;;;;;;5.38;2.22;;;2.90;99.90;;;;;;5006522;28;20136;-65
2024/01/19 11:34:06;;;;;;;7.85;2.60;;;3.00;99.90;;;;;;5006986;28;20169;-65
2024/01/19 11:36:40;;;;;;;5.38;2.15;;;3.00;99.90;;;;;;5004631;28;20390;-64
2024/01/19 11:39:08;;;;;;;6.57;2.10;;;2.90;99.90;;;;;;5003170;28;20416;-65
2024/01/19 11:41:35;;;;;;;7.25;2.05;;;3.10;99.90;;;;;;5005192;28;20054;-66
2024/01/19 11:44:04;;;;;;;2.70;1.83;;;3.20;99.90;;;;;;5005271;28;20063;-65
2024/01/19 11:46:40;;;;;;;5.82;2.38;;;3.20;99.90;;;;;;5001649;28;20068;-64
2024/01/19 11:49:07;;;;;;;13.25;2.42;;;3.30;99.90;;;;;;5005509;28;20045;-65
2024/01/19 11:51:34;;;;;;;8.85;5.45;;;3.30;99.90;;;;;;5004754;28;20160;-65
2024/01/19 11:54:02;;;;;;;4.03;1.80;;;3.50;99.90;;;;;;5006695;28;20522;-64
2024/01/19 11:56:30;;;;;;;10.60;2.45;;;3.40;99.90;;;;;;5004201;28;20066;-64
2024/01/19 11:58:58;;;;;;;8.55;2.20;;;3.40;99.90;;;;;;4999370;28;20504;-64
2024/01/19 12:01:25;;;;;;;9.93;2.38;;;3.50;99.90;;;;;;5003244;28;20152;-64
2024/01/19 12:03:53;;;;;;;6.22;2.50;;;3.50;99.90;;;;;;5006399;28;20077;-64
2024/01/19 12:06:21;;;;;;;5.43;1.80;;;3.60;99.90;;;;;;5007191;28;20140;-64
2024/01/19 12:09:04;;;;;;;12.82;2.70;;;3.60;99.90;;;;;;4998040;28;20042;-64
2024/01/19 12:11:31;;;;;;;4.28;1.98;;;3.70;99.90;;;;;;5002339;28;20050;-64
2024/01/19 12:14:03;;;;;;;4.88;2.45;;;3.70;99.90;;;;;;5016826;28;20041;-64
2024/01/19 12:16:32;;;;;;;6.32;2.25;;;3.80;99.90;;;;;;4995976;28;20317;-64
2024/01/19 12:18:59;;;;;;;6.15;1.98;;;3.90;99.90;;;;;;5001767;28;20068;-64
2024/01/19 12:21:26;;;;;;;3.60;1.67;;;3.90;99.90;;;;;;4989976;28;20050;-63
2024/01/19 12:23:55;;;;;;;8.73;2.25;;;4.00;99.90;;;;;;5004399;28;20046;-65
2024/01/19 12:26:22;;;;;;;7.30;2.53;;;4.00;99.90;;;;;;5005212;28;20112;-64
2024/01/19 12:28:53;;;;;;;6.60;2.42;;;4.10;99.90;;;;;;5005696;28;20096;-64
2024/01/19 12:31:24;;;;;;;6.82;1.75;;;4.10;99.90;;;;;;5005071;28;20377;-63
2024/01/19 12:33:52;;;;;;;4.35;1.50;;;4.20;99.90;;;;;;4999623;28;20046;-63
2024/01/19 12:36:22;;;;;;;11.85;3.85;;;4.20;99.90;;;;;;4999576;28;20042;-64
2024/01/19 12:39:01;;;;;;;7.28;1.42;;;4.30;99.90;;;;;;5011410;28;20134;-64
2024/01/19 12:41:30;;;;;;;12.32;1.90;;;4.30;99.90;;;;;;5003557;28;20042;-64
2024/01/19 12:43:59;;;;;;;18.40;2.72;;;4.20;99.90;;;;;;5004756;28;20493;-65
2024/01/19 12:46:26;;;;;;;7.32;2.05;;;4.30;99.90;;;;;;5003498;28;20315;-64
2024/01/19 12:49:02;;;;;;;9.07;2.22;;;4.20;99.90;;;;;;5009483;28;20064;-63